Southwark, United Kingdom
Current Conditions -  °F | °C
As of 10:50 AM on Wednesday 26 Nov 2014 (Local Time) from EGLC Reporting Station
Haze Haze  
Wind Chill: 48°   Ceiling: 100
Heat Index: 48°   Visibility: 1mi
Dew Point: 46°   Wind: 3mph
Humidity: 93%   Direction: 60°ENE
Pressure: 29.85"   Gusts: NA
Location:  51.46°N, 0.07°W
Report Text: EGLC 261050Z 06003KT 1600 BR BKN001 09/08 Q1011
Loading
Personal Weather Stations






























Interactive Weather Map New forecast layout! Learn more

10-Day Weather Forecast

Advertisements
Track Severe Weather on mobile